sensor_id;sensor_type;location;lat;lon;timestamp;pressure;altitude;pressure_sealevel;temperature
19061;BMP280;9663;48.996;8.334;2022-09-09T00:01:04;99844.25;;;21.78
19061;BMP280;9663;48.996;8.334;2022-09-09T00:12:38;99868.97;;;21.67
19061;BMP280;9663;48.996;8.334;2022-09-09T00:15:19;99856.28;;;21.64
19061;BMP280;9663;48.996;8.334;2022-09-09T00:20:55;99857.50;;;21.57
19061;BMP280;9663;48.996;8.334;2022-09-09T00:23:37;99848.03;;;21.57
19061;BMP280;9663;48.996;8.334;2022-09-09T00:26:30;99850.53;;;21.59
19061;BMP280;9663;48.996;8.334;2022-09-09T00:32:17;99853.00;;;21.60
19061;BMP280;9663;48.996;8.334;2022-09-09T00:34:56;99858.84;;;21.64
19061;BMP280;9663;48.996;8.334;2022-09-09T00:37:25;99860.34;;;21.68
19061;BMP280;9663;48.996;8.334;2022-09-09T00:39:58;99855.00;;;21.71
19061;BMP280;9663;48.996;8.334;2022-09-09T00:42:43;99840.44;;;21.70
19061;BMP280;9663;48.996;8.334;2022-09-09T00:48:14;99847.84;;;21.76
19061;BMP280;9663;48.996;8.334;2022-09-09T00:50:53;99858.75;;;21.81
19061;BMP280;9663;48.996;8.334;2022-09-09T00:56:20;99858.00;;;21.79
19061;BMP280;9663;48.996;8.334;2022-09-09T01:01:36;99859.41;;;21.84
19061;BMP280;9663;48.996;8.334;2022-09-09T01:04:13;99863.66;;;21.85
19061;BMP280;9663;48.996;8.334;2022-09-09T01:06:45;99863.53;;;21.86
19061;BMP280;9663;48.996;8.334;2022-09-09T01:09:48;99867.16;;;21.84
19061;BMP280;9663;48.996;8.334;2022-09-09T01:15:11;99878.94;;;21.88
19061;BMP280;9663;48.996;8.334;2022-09-09T01:18:03;99882.56;;;21.86
19061;BMP280;9663;48.996;8.334;2022-09-09T01:23:41;99892.78;;;21.87
19061;BMP280;9663;48.996;8.334;2022-09-09T01:26:33;99890.13;;;21.88
19061;BMP280;9663;48.996;8.334;2022-09-09T01:29:00;99894.19;;;21.92
19061;BMP280;9663;48.996;8.334;2022-09-09T01:31:40;99887.13;;;21.96
19061;BMP280;9663;48.996;8.334;2022-09-09T01:34:13;99878.47;;;21.97
19061;BMP280;9663;48.996;8.334;2022-09-09T01:37:08;99888.78;;;21.97
19061;BMP280;9663;48.996;8.334;2022-09-09T01:39:37;99871.22;;;21.88
19061;BMP280;9663;48.996;8.334;2022-09-09T01:42:08;99887.06;;;21.82
19061;BMP280;9663;48.996;8.334;2022-09-09T01:44:35;99883.91;;;21.77
19061;BMP280;9663;48.996;8.334;2022-09-09T01:47:03;99889.31;;;21.73
19061;BMP280;9663;48.996;8.334;2022-09-09T01:49:29;99887.03;;;21.67
19061;BMP280;9663;48.996;8.334;2022-09-09T01:51:56;99883.88;;;21.62
19061;BMP280;9663;48.996;8.334;2022-09-09T01:54:27;99878.06;;;21.58
19061;BMP280;9663;48.996;8.334;2022-09-09T02:00:07;99884.78;;;21.45
19061;BMP280;9663;48.996;8.334;2022-09-09T02:03:20;99853.56;;;21.35
19061;BMP280;9663;48.996;8.334;2022-09-09T02:08:57;99844.56;;;21.26
19061;BMP280;9663;48.996;8.334;2022-09-09T02:11:29;99850.78;;;21.22
19061;BMP280;9663;48.996;8.334;2022-09-09T02:14:08;99854.47;;;21.18
19061;BMP280;9663;48.996;8.334;2022-09-09T02:16:42;99857.94;;;21.17
19061;BMP280;9663;48.996;8.334;2022-09-09T02:19:24;99848.72;;;21.13
19061;BMP280;9663;48.996;8.334;2022-09-09T02:21:55;99841.81;;;21.14
19061;BMP280;9663;48.996;8.334;2022-09-09T02:24:23;99849.63;;;21.12
19061;BMP280;9663;48.996;8.334;2022-09-09T02:26:53;99846.13;;;21.13
19061;BMP280;9663;48.996;8.334;2022-09-09T02:29:33;99840.25;;;21.11
19061;BMP280;9663;48.996;8.334;2022-09-09T02:32:06;99847.97;;;21.11
19061;BMP280;9663;48.996;8.334;2022-09-09T02:34:36;99838.47;;;21.12
19061;BMP280;9663;48.996;8.334;2022-09-09T02:37:08;99843.63;;;21.12
19061;BMP280;9663;48.996;8.334;2022-09-09T02:39:35;99850.63;;;21.10
19061;BMP280;9663;48.996;8.334;2022-09-09T02:42:00;99843.94;;;21.06
19061;BMP280;9663;48.996;8.334;2022-09-09T02:44:26;99842.53;;;21.00
19061;BMP280;9663;48.996;8.334;2022-09-09T02:53:17;99837.88;;;20.92
19061;BMP280;9663;48.996;8.334;2022-09-09T02:56:13;99837.88;;;20.92
19061;BMP280;9663;48.996;8.334;2022-09-09T02:58:41;99840.34;;;20.93
19061;BMP280;9663;48.996;8.334;2022-09-09T03:01:07;99828.31;;;20.94
19061;BMP280;9663;48.996;8.334;2022-09-09T03:03:34;99828.16;;;20.97
19061;BMP280;9663;48.996;8.334;2022-09-09T03:06:00;99827.22;;;20.98
19061;BMP280;9663;48.996;8.334;2022-09-09T03:08:26;99829.81;;;20.98
19061;BMP280;9663;48.996;8.334;2022-09-09T03:10:54;99829.88;;;20.96
19061;BMP280;9663;48.996;8.334;2022-09-09T03:13:20;99832.53;;;20.95
19061;BMP280;9663;48.996;8.334;2022-09-09T03:15:48;99845.59;;;20.92
19061;BMP280;9663;48.996;8.334;2022-09-09T03:18:14;99846.66;;;20.88
19061;BMP280;9663;48.996;8.334;2022-09-09T03:20:39;99846.88;;;20.83
19061;BMP280;9663;48.996;8.334;2022-09-09T03:23:07;99840.16;;;20.81
19061;BMP280;9663;48.996;8.334;2022-09-09T03:25:33;99848.78;;;20.80
19061;BMP280;9663;48.996;8.334;2022-09-09T03:28:00;99860.03;;;20.79
19061;BMP280;9663;48.996;8.334;2022-09-09T03:30:27;99859.34;;;20.75
19061;BMP280;9663;48.996;8.334;2022-09-09T03:32:53;99852.53;;;20.74
19061;BMP280;9663;48.996;8.334;2022-09-09T03:35:20;99850.03;;;20.73
19061;BMP280;9663;48.996;8.334;2022-09-09T03:37:46;99850.09;;;20.71
19061;BMP280;9663;48.996;8.334;2022-09-09T03:40:13;99845.88;;;20.70
19061;BMP280;9663;48.996;8.334;2022-09-09T03:42:39;99847.75;;;20.67
19061;BMP280;9663;48.996;8.334;2022-09-09T03:45:08;99847.84;;;20.65
19061;BMP280;9663;48.996;8.334;2022-09-09T03:47:35;99843.53;;;20.66
19061;BMP280;9663;48.996;8.334;2022-09-09T03:50:01;99846.09;;;20.66
19061;BMP280;9663;48.996;8.334;2022-09-09T03:52:26;99837.56;;;20.65
19061;BMP280;9663;48.996;8.334;2022-09-09T03:54:53;99856.25;;;20.69
19061;BMP280;9663;48.996;8.334;2022-09-09T03:57:20;99848.59;;;20.67
19061;BMP280;9663;48.996;8.334;2022-09-09T03:59:45;99851.94;;;20.69
19061;BMP280;9663;48.996;8.334;2022-09-09T04:02:11;99854.50;;;20.69
19061;BMP280;9663;48.996;8.334;2022-09-09T04:04:37;99855.41;;;20.68
19061;BMP280;9663;48.996;8.334;2022-09-09T04:07:03;99851.09;;;20.69
19061;BMP280;9663;48.996;8.334;2022-09-09T04:09:31;99857.91;;;20.70
19061;BMP280;9663;48.996;8.334;2022-09-09T04:11:57;99846.69;;;20.71
19061;BMP280;9663;48.996;8.334;2022-09-09T04:14:23;99857.84;;;20.71
19061;BMP280;9663;48.996;8.334;2022-09-09T04:16:48;99861.22;;;20.72
19061;BMP280;9663;48.996;8.334;2022-09-09T04:19:14;99866.38;;;20.72
19061;BMP280;9663;48.996;8.334;2022-09-09T04:21:41;99865.50;;;20.73
19061;BMP280;9663;48.996;8.334;2022-09-09T04:24:09;99868.75;;;20.76
19061;BMP280;9663;48.996;8.334;2022-09-09T04:26:36;99866.00;;;20.79
19061;BMP280;9663;48.996;8.334;2022-09-09T04:29:03;99865.03;;;20.82
19061;BMP280;9663;48.996;8.334;2022-09-09T04:31:29;99865.84;;;20.82
19061;BMP280;9663;48.996;8.334;2022-09-09T04:33:55;99867.34;;;20.86
19061;BMP280;9663;48.996;8.334;2022-09-09T04:36:21;99865.53;;;20.88
19061;BMP280;9663;48.996;8.334;2022-09-09T04:38:47;99872.28;;;20.91
19061;BMP280;9663;48.996;8.334;2022-09-09T04:41:15;99875.53;;;20.94
19061;BMP280;9663;48.996;8.334;2022-09-09T04:43:42;99882.97;;;21.00
19061;BMP280;9663;48.996;8.334;2022-09-09T04:46:08;99877.63;;;21.03
19061;BMP280;9663;48.996;8.334;2022-09-09T04:48:34;99881.06;;;21.03
19061;BMP280;9663;48.996;8.334;2022-09-09T04:51:03;99879.97;;;21.07
19061;BMP280;9663;48.996;8.334;2022-09-09T04:53:29;99879.72;;;21.12
19061;BMP280;9663;48.996;8.334;2022-09-09T04:58:28;99892.31;;;21.18
19061;BMP280;9663;48.996;8.334;2022-09-09T05:00:54;99890.56;;;21.18
19061;BMP280;9663;48.996;8.334;2022-09-09T05:03:20;99899.94;;;21.19
19061;BMP280;9663;48.996;8.334;2022-09-09T05:05:45;99893.81;;;21.22
19061;BMP280;9663;48.996;8.334;2022-09-09T05:08:11;99897.13;;;21.24
19061;BMP280;9663;48.996;8.334;2022-09-09T05:10:38;99894.25;;;21.30
19061;BMP280;9663;48.996;8.334;2022-09-09T05:13:04;99899.13;;;21.34
19061;BMP280;9663;48.996;8.334;2022-09-09T05:15:30;99903.97;;;21.40
19061;BMP280;9663;48.996;8.334;2022-09-09T05:17:58;99897.84;;;21.42
19061;BMP280;9663;48.996;8.334;2022-09-09T05:20:25;99900.25;;;21.45
19061;BMP280;9663;48.996;8.334;2022-09-09T05:22:54;99904.44;;;21.48
19061;BMP280;9663;48.996;8.334;2022-09-09T05:25:20;99897.44;;;21.50
19061;BMP280;9663;48.996;8.334;2022-09-09T05:27:47;99896.56;;;21.51
19061;BMP280;9663;48.996;8.334;2022-09-09T05:30:13;99905.94;;;21.52
19061;BMP280;9663;48.996;8.334;2022-09-09T05:32:38;99906.72;;;21.54
19061;BMP280;9663;48.996;8.334;2022-09-09T05:35:04;99904.88;;;21.56
19061;BMP280;9663;48.996;8.334;2022-09-09T05:37:31;99904.97;;;21.54
19061;BMP280;9663;48.996;8.334;2022-09-09T05:39:57;99909.19;;;21.55
19061;BMP280;9663;48.996;8.334;2022-09-09T05:42:23;99910.94;;;21.55
19061;BMP280;9663;48.996;8.334;2022-09-09T05:44:49;99925.59;;;21.54
19061;BMP280;9663;48.996;8.334;2022-09-09T05:47:16;99908.44;;;21.53
19061;BMP280;9663;48.996;8.334;2022-09-09T05:49:42;99911.88;;;21.54
19061;BMP280;9663;48.996;8.334;2022-09-09T05:52:08;99916.03;;;21.56
19061;BMP280;9663;48.996;8.334;2022-09-09T05:54:35;99913.13;;;21.62
19061;BMP280;9663;48.996;8.334;2022-09-09T05:57:03;99917.03;;;21.69
19061;BMP280;9663;48.996;8.334;2022-09-09T05:59:29;99926.19;;;21.75
19061;BMP280;9663;48.996;8.334;2022-09-09T06:01:54;99923.13;;;21.84
19061;BMP280;9663;48.996;8.334;2022-09-09T06:04:20;99931.25;;;21.91
19061;BMP280;9663;48.996;8.334;2022-09-09T06:06:47;99924.13;;;21.96
19061;BMP280;9663;48.996;8.334;2022-09-09T06:09:14;99928.91;;;22.02
19061;BMP280;9663;48.996;8.334;2022-09-09T06:11:41;99928.59;;;22.08
19061;BMP280;9663;48.996;8.334;2022-09-09T06:14:08;99931.59;;;22.16
19061;BMP280;9663;48.996;8.334;2022-09-09T06:16:35;99918.44;;;22.21
19061;BMP280;9663;48.996;8.334;2022-09-09T06:19:03;99921.41;;;22.29
19061;BMP280;9663;48.996;8.334;2022-09-09T06:21:35;99911.56;;;22.35
19061;BMP280;9663;48.996;8.334;2022-09-09T06:24:03;99917.22;;;22.41
19061;BMP280;9663;48.996;8.334;2022-09-09T06:26:37;99917.72;;;22.48
19061;BMP280;9663;48.996;8.334;2022-09-09T06:29:06;99918.09;;;22.56
19061;BMP280;9663;48.996;8.334;2022-09-09T06:31:34;99918.66;;;22.61
19061;BMP280;9663;48.996;8.334;2022-09-09T06:34:05;99907.97;;;22.67
19061;BMP280;9663;48.996;8.334;2022-09-09T06:36:35;99911.97;;;22.72
19061;BMP280;9663;48.996;8.334;2022-09-09T06:39:01;99914.16;;;22.78
19061;BMP280;9663;48.996;8.334;2022-09-09T06:41:29;99912.78;;;22.86
19061;BMP280;9663;48.996;8.334;2022-09-09T06:43:56;99921.91;;;22.93
19061;BMP280;9663;48.996;8.334;2022-09-09T06:46:25;99912.13;;;22.98
19061;BMP280;9663;48.996;8.334;2022-09-09T06:48:55;99916.34;;;22.99
19061;BMP280;9663;48.996;8.334;2022-09-09T06:51:25;99903.41;;;22.99
19061;BMP280;9663;48.996;8.334;2022-09-09T06:53:54;99909.31;;;23.01
19061;BMP280;9663;48.996;8.334;2022-09-09T06:56:38;99917.00;;;23.03
19061;BMP280;9663;48.996;8.334;2022-09-09T06:59:07;99918.31;;;23.10
19061;BMP280;9663;48.996;8.334;2022-09-09T07:01:36;99919.88;;;23.12
19061;BMP280;9663;48.996;8.334;2022-09-09T07:04:04;99922.19;;;23.17
19061;BMP280;9663;48.996;8.334;2022-09-09T07:06:36;99920.88;;;23.23
19061;BMP280;9663;48.996;8.334;2022-09-09T07:09:09;99913.50;;;23.31
19061;BMP280;9663;48.996;8.334;2022-09-09T07:11:47;99920.59;;;23.42
19061;BMP280;9663;48.996;8.334;2022-09-09T07:14:14;99915.06;;;23.48
19061;BMP280;9663;48.996;8.334;2022-09-09T07:16:41;99923.28;;;23.54
19061;BMP280;9663;48.996;8.334;2022-09-09T07:19:08;99930.00;;;23.57
19061;BMP280;9663;48.996;8.334;2022-09-09T07:21:34;99928.16;;;23.58
19061;BMP280;9663;48.996;8.334;2022-09-09T07:24:00;99928.00;;;23.61
19061;BMP280;9663;48.996;8.334;2022-09-09T07:26:30;99927.19;;;23.61
19061;BMP280;9663;48.996;8.334;2022-09-09T07:28:56;99924.75;;;23.58
19061;BMP280;9663;48.996;8.334;2022-09-09T07:31:32;99919.56;;;23.58
19061;BMP280;9663;48.996;8.334;2022-09-09T07:33:59;99919.41;;;23.61
19061;BMP280;9663;48.996;8.334;2022-09-09T07:36:28;99925.03;;;23.67
19061;BMP280;9663;48.996;8.334;2022-09-09T07:39:01;99924.69;;;23.73
19061;BMP280;9663;48.996;8.334;2022-09-09T07:41:32;99919.63;;;23.84
19061;BMP280;9663;48.996;8.334;2022-09-09T07:44:03;99932.13;;;23.92
19061;BMP280;9663;48.996;8.334;2022-09-09T07:46:29;99939.38;;;23.99
19061;BMP280;9663;48.996;8.334;2022-09-09T07:48:56;99935.47;;;24.06
19061;BMP280;9663;48.996;8.334;2022-09-09T07:51:35;99926.69;;;24.08
19061;BMP280;9663;48.996;8.334;2022-09-09T07:54:07;99926.19;;;24.16
19061;BMP280;9663;48.996;8.334;2022-09-09T07:56:34;99918.47;;;24.28
19061;BMP280;9663;48.996;8.334;2022-09-09T07:59:01;99924.38;;;24.44
19061;BMP280;9663;48.996;8.334;2022-09-09T08:01:31;99923.25;;;24.60
19061;BMP280;9663;48.996;8.334;2022-09-09T08:04:04;99925.84;;;24.73
19061;BMP280;9663;48.996;8.334;2022-09-09T08:06:42;99932.41;;;24.78
19061;BMP280;9663;48.996;8.334;2022-09-09T08:09:09;99946.94;;;24.81
19061;BMP280;9663;48.996;8.334;2022-09-09T08:11:35;99951.09;;;24.83
19061;BMP280;9663;48.996;8.334;2022-09-09T08:14:03;99939.38;;;24.90
19061;BMP280;9663;48.996;8.334;2022-09-09T08:16:33;99935.00;;;24.90
19061;BMP280;9663;48.996;8.334;2022-09-09T08:19:02;99946.19;;;24.91
19061;BMP280;9663;48.996;8.334;2022-09-09T08:21:31;99947.97;;;24.90
19061;BMP280;9663;48.996;8.334;2022-09-09T08:24:00;99962.19;;;24.85
19061;BMP280;9663;48.996;8.334;2022-09-09T08:26:32;99961.88;;;24.77
19061;BMP280;9663;48.996;8.334;2022-09-09T08:29:01;99958.75;;;24.72
19061;BMP280;9663;48.996;8.334;2022-09-09T08:31:34;99961.44;;;24.71
19061;BMP280;9663;48.996;8.334;2022-09-09T08:34:01;99955.63;;;24.67
19061;BMP280;9663;48.996;8.334;2022-09-09T08:36:32;99950.44;;;24.67
19061;BMP280;9663;48.996;8.334;2022-09-09T08:39:03;99961.44;;;24.71
19061;BMP280;9663;48.996;8.334;2022-09-09T08:45:00;99966.31;;;24.88
19061;BMP280;9663;48.996;8.334;2022-09-09T08:48:08;99954.53;;;24.96
19061;BMP280;9663;48.996;8.334;2022-09-09T08:50:37;99974.91;;;25.02
19061;BMP280;9663;48.996;8.334;2022-09-09T08:53:39;99972.69;;;24.96
19061;BMP280;9663;48.996;8.334;2022-09-09T08:56:16;99963.78;;;25.00
19061;BMP280;9663;48.996;8.334;2022-09-09T08:58:55;99984.28;;;24.90
19061;BMP280;9663;48.996;8.334;2022-09-09T09:01:54;99979.50;;;24.72
19061;BMP280;9663;48.996;8.334;2022-09-09T09:12:54;99956.56;;;24.40
19061;BMP280;9663;48.996;8.334;2022-09-09T09:15:37;99957.53;;;24.39
19061;BMP280;9663;48.996;8.334;2022-09-09T09:18:05;99962.28;;;24.45
19061;BMP280;9663;48.996;8.334;2022-09-09T09:21:07;99961.81;;;24.52
19061;BMP280;9663;48.996;8.334;2022-09-09T09:23:57;99965.69;;;24.72
19061;BMP280;9663;48.996;8.334;2022-09-09T09:26:31;99951.19;;;24.94
19061;BMP280;9663;48.996;8.334;2022-09-09T09:28:59;99962.31;;;25.21
19061;BMP280;9663;48.996;8.334;2022-09-09T09:31:26;99963.88;;;25.48
19061;BMP280;9663;48.996;8.334;2022-09-09T09:33:56;99959.50;;;25.73
19061;BMP280;9663;48.996;8.334;2022-09-09T09:36:39;99967.88;;;25.89
19061;BMP280;9663;48.996;8.334;2022-09-09T09:39:05;99971.69;;;25.96
19061;BMP280;9663;48.996;8.334;2022-09-09T09:41:36;99969.84;;;25.98
19061;BMP280;9663;48.996;8.334;2022-09-09T09:44:04;99962.38;;;25.93
19061;BMP280;9663;48.996;8.334;2022-09-09T09:46:31;99964.47;;;25.88
19061;BMP280;9663;48.996;8.334;2022-09-09T09:49:03;99963.50;;;25.89
19061;BMP280;9663;48.996;8.334;2022-09-09T09:51:32;99971.69;;;25.96
19061;BMP280;9663;48.996;8.334;2022-09-09T09:54:26;99955.19;;;25.97
19061;BMP280;9663;48.996;8.334;2022-09-09T09:56:53;99954.97;;;26.00
19061;BMP280;9663;48.996;8.334;2022-09-09T09:59:37;99959.31;;;25.99
19061;BMP280;9663;48.996;8.334;2022-09-09T10:04:46;99965.25;;;26.01
19061;BMP280;9663;48.996;8.334;2022-09-09T10:07:18;99961.88;;;26.12
19061;BMP280;9663;48.996;8.334;2022-09-09T10:09:45;99966.00;;;26.26
19061;BMP280;9663;48.996;8.334;2022-09-09T10:15:31;99975.28;;;26.41
19061;BMP280;9663;48.996;8.334;2022-09-09T10:21:07;99955.97;;;26.56
19061;BMP280;9663;48.996;8.334;2022-09-09T10:23:50;99944.91;;;26.65
19061;BMP280;9663;48.996;8.334;2022-09-09T10:26:46;99936.75;;;26.69
19061;BMP280;9663;48.996;8.334;2022-09-09T10:29:51;99938.00;;;26.87
19061;BMP280;9663;48.996;8.334;2022-09-09T10:32:40;99937.94;;;27.10
19061;BMP280;9663;48.996;8.334;2022-09-09T10:35:27;99929.91;;;27.24
19061;BMP280;9663;48.996;8.334;2022-09-09T10:46:51;99925.78;;;27.65
19061;BMP280;9663;48.996;8.334;2022-09-09T10:55:20;99929.78;;;27.80
19061;BMP280;9663;48.996;8.334;2022-09-09T10:57:54;99927.75;;;27.95
19061;BMP280;9663;48.996;8.334;2022-09-09T11:00:47;99926.53;;;27.98
19061;BMP280;9663;48.996;8.334;2022-09-09T11:03:26;99911.72;;;28.10
19061;BMP280;9663;48.996;8.334;2022-09-09T11:06:16;99922.94;;;28.21
19061;BMP280;9663;48.996;8.334;2022-09-09T11:08:43;99923.09;;;28.40
19061;BMP280;9663;48.996;8.334;2022-09-09T11:11:34;99926.34;;;28.64
19061;BMP280;9663;48.996;8.334;2022-09-09T11:14:10;99913.34;;;28.93
19061;BMP280;9663;48.996;8.334;2022-09-09T11:19:46;99904.19;;;29.28
19061;BMP280;9663;48.996;8.334;2022-09-09T11:25:32;99907.38;;;30.48
19061;BMP280;9663;48.996;8.334;2022-09-09T11:37:16;99869.22;;;36.38
19061;BMP280;9663;48.996;8.334;2022-09-09T11:40:23;99864.25;;;37.37
19061;BMP280;9663;48.996;8.334;2022-09-09T11:45:54;99864.34;;;38.14
19061;BMP280;9663;48.996;8.334;2022-09-09T11:48:33;99869.63;;;37.44
19061;BMP280;9663;48.996;8.334;2022-09-09T11:59:16;99854.50;;;38.50
19061;BMP280;9663;48.996;8.334;2022-09-09T12:01:48;99848.97;;;39.39
19061;BMP280;9663;48.996;8.334;2022-09-09T12:07:23;99851.22;;;38.27
19061;BMP280;9663;48.996;8.334;2022-09-09T12:09:59;99854.97;;;37.13
19061;BMP280;9663;48.996;8.334;2022-09-09T12:12:35;99845.56;;;35.78
19061;BMP280;9663;48.996;8.334;2022-09-09T12:17:51;99860.75;;;33.48
19061;BMP280;9663;48.996;8.334;2022-09-09T12:23:12;99862.44;;;31.96
19061;BMP280;9663;48.996;8.334;2022-09-09T12:26:37;99876.44;;;31.34
19061;BMP280;9663;48.996;8.334;2022-09-09T12:29:10;99869.19;;;30.73
19061;BMP280;9663;48.996;8.334;2022-09-09T12:31:56;99868.78;;;30.12
19061;BMP280;9663;48.996;8.334;2022-09-09T12:34:34;99880.81;;;29.66
19061;BMP280;9663;48.996;8.334;2022-09-09T12:37:35;99872.56;;;29.22
19061;BMP280;9663;48.996;8.334;2022-09-09T12:40:15;99879.47;;;29.03
19061;BMP280;9663;48.996;8.334;2022-09-09T12:42:43;99873.75;;;28.88
19061;BMP280;9663;48.996;8.334;2022-09-09T12:45:18;99877.78;;;29.61
19061;BMP280;9663;48.996;8.334;2022-09-09T12:47:56;99857.69;;;31.29
19061;BMP280;9663;48.996;8.334;2022-09-09T12:50:43;99845.78;;;33.08
19061;BMP280;9663;48.996;8.334;2022-09-09T12:53:17;99848.56;;;34.04
19061;BMP280;9663;48.996;8.334;2022-09-09T12:58:50;99869.44;;;32.40
19061;BMP280;9663;48.996;8.334;2022-09-09T13:01:32;99873.94;;;31.42
19061;BMP280;9663;48.996;8.334;2022-09-09T13:04:01;99865.56;;;30.74
19061;BMP280;9663;48.996;8.334;2022-09-09T13:06:29;99877.88;;;30.17
19061;BMP280;9663;48.996;8.334;2022-09-09T13:08:59;99884.13;;;29.68
19061;BMP280;9663;48.996;8.334;2022-09-09T13:11:53;99882.94;;;29.13
19061;BMP280;9663;48.996;8.334;2022-09-09T13:14:35;99873.13;;;28.76
19061;BMP280;9663;48.996;8.334;2022-09-09T13:17:05;99875.72;;;28.55
19061;BMP280;9663;48.996;8.334;2022-09-09T13:19:43;99871.91;;;28.39
19061;BMP280;9663;48.996;8.334;2022-09-09T13:22:34;99862.44;;;28.58
19061;BMP280;9663;48.996;8.334;2022-09-09T13:25:25;99851.50;;;28.84
19061;BMP280;9663;48.996;8.334;2022-09-09T13:28:02;99849.38;;;29.38
19061;BMP280;9663;48.996;8.334;2022-09-09T13:30:31;99849.25;;;29.78
19061;BMP280;9663;48.996;8.334;2022-09-09T13:33:22;99841.28;;;30.08
19061;BMP280;9663;48.996;8.334;2022-09-09T13:35:57;99839.34;;;30.19
19061;BMP280;9663;48.996;8.334;2022-09-09T13:38:25;99830.41;;;30.03
19061;BMP280;9663;48.996;8.334;2022-09-09T13:41:09;99837.50;;;29.73
19061;BMP280;9663;48.996;8.334;2022-09-09T13:43:50;99836.88;;;29.41
19061;BMP280;9663;48.996;8.334;2022-09-09T13:46:32;99840.88;;;29.06
19061;BMP280;9663;48.996;8.334;2022-09-09T13:49:21;99820.13;;;28.75
19061;BMP280;9663;48.996;8.334;2022-09-09T13:51:50;99827.59;;;28.89
19061;BMP280;9663;48.996;8.334;2022-09-09T13:54:20;99831.63;;;28.52
19061;BMP280;9663;48.996;8.334;2022-09-09T13:56:46;99831.63;;;28.32
19061;BMP280;9663;48.996;8.334;2022-09-09T13:59:16;99838.84;;;28.08
19061;BMP280;9663;48.996;8.334;2022-09-09T14:01:42;99844.84;;;27.78
19061;BMP280;9663;48.996;8.334;2022-09-09T14:04:09;99862.19;;;27.46
19061;BMP280;9663;48.996;8.334;2022-09-09T14:06:36;99877.81;;;27.13
19061;BMP280;9663;48.996;8.334;2022-09-09T14:09:05;99886.47;;;26.58
19061;BMP280;9663;48.996;8.334;2022-09-09T14:11:30;99884.75;;;25.89
19061;BMP280;9663;48.996;8.334;2022-09-09T14:13:56;99864.97;;;25.28
19061;BMP280;9663;48.996;8.334;2022-09-09T14:16:22;99848.88;;;24.73
19061;BMP280;9663;48.996;8.334;2022-09-09T14:22:28;99855.78;;;23.71
19061;BMP280;9663;48.996;8.334;2022-09-09T14:24:54;99867.75;;;23.46
19061;BMP280;9663;48.996;8.334;2022-09-09T14:27:23;99883.28;;;23.32
19061;BMP280;9663;48.996;8.334;2022-09-09T14:29:48;99875.91;;;23.26
19061;BMP280;9663;48.996;8.334;2022-09-09T14:32:14;99872.78;;;23.21
19061;BMP280;9663;48.996;8.334;2022-09-09T14:34:40;99873.78;;;23.18
19061;BMP280;9663;48.996;8.334;2022-09-09T14:37:06;99867.69;;;23.19
19061;BMP280;9663;48.996;8.334;2022-09-09T14:39:31;99864.16;;;23.20
19061;BMP280;9663;48.996;8.334;2022-09-09T14:41:57;99877.72;;;23.24
19061;BMP280;9663;48.996;8.334;2022-09-09T14:44:23;99907.97;;;23.23
19061;BMP280;9663;48.996;8.334;2022-09-09T14:46:54;99916.06;;;23.17
19061;BMP280;9663;48.996;8.334;2022-09-09T14:49:20;99924.84;;;23.01
19061;BMP280;9663;48.996;8.334;2022-09-09T14:51:45;99912.06;;;22.84
19061;BMP280;9663;48.996;8.334;2022-09-09T14:54:11;99898.09;;;22.73
19061;BMP280;9663;48.996;8.334;2022-09-09T14:56:37;99884.44;;;22.71
19061;BMP280;9663;48.996;8.334;2022-09-09T14:59:04;99890.06;;;22.77
19061;BMP280;9663;48.996;8.334;2022-09-09T15:01:31;99887.06;;;22.85
19061;BMP280;9663;48.996;8.334;2022-09-09T15:04:04;99880.69;;;22.90
19061;BMP280;9663;48.996;8.334;2022-09-09T15:06:35;99890.78;;;22.95
19061;BMP280;9663;48.996;8.334;2022-09-09T15:09:05;99889.66;;;22.99
19061;BMP280;9663;48.996;8.334;2022-09-09T15:15:11;99885.88;;;23.32
19061;BMP280;9663;48.996;8.334;2022-09-09T15:17:38;99889.22;;;23.60
19061;BMP280;9663;48.996;8.334;2022-09-09T15:20:04;99881.50;;;24.00
19061;BMP280;9663;48.996;8.334;2022-09-09T15:22:31;99884.38;;;24.60
19061;BMP280;9663;48.996;8.334;2022-09-09T15:24:57;99878.53;;;25.43
19061;BMP280;9663;48.996;8.334;2022-09-09T15:27:23;99891.34;;;26.28
19061;BMP280;9663;48.996;8.334;2022-09-09T15:29:50;99877.38;;;27.52
19061;BMP280;9663;48.996;8.334;2022-09-09T15:32:17;99867.00;;;28.45
19061;BMP280;9663;48.996;8.334;2022-09-09T15:34:44;99869.34;;;28.89
19061;BMP280;9663;48.996;8.334;2022-09-09T15:37:10;99869.28;;;29.29
19061;BMP280;9663;48.996;8.334;2022-09-09T15:39:39;99867.53;;;29.78
19061;BMP280;9663;48.996;8.334;2022-09-09T15:42:06;99880.09;;;30.31
19061;BMP280;9663;48.996;8.334;2022-09-09T15:44:42;99871.44;;;31.14
19061;BMP280;9663;48.996;8.334;2022-09-09T15:47:11;99869.47;;;31.52
19061;BMP280;9663;48.996;8.334;2022-09-09T15:49:38;99867.84;;;31.42
19061;BMP280;9663;48.996;8.334;2022-09-09T15:52:05;99867.47;;;31.01
19061;BMP280;9663;48.996;8.334;2022-09-09T15:54:35;99881.88;;;30.50
19061;BMP280;9663;48.996;8.334;2022-09-09T15:57:04;99890.66;;;30.02
19061;BMP280;9663;48.996;8.334;2022-09-09T15:59:31;99904.97;;;29.49
19061;BMP280;9663;48.996;8.334;2022-09-09T16:01:58;99912.66;;;28.91
19061;BMP280;9663;48.996;8.334;2022-09-09T16:04:26;99915.09;;;28.32
19061;BMP280;9663;48.996;8.334;2022-09-09T16:06:57;99914.63;;;27.74
19061;BMP280;9663;48.996;8.334;2022-09-09T16:09:25;99918.31;;;27.17
19061;BMP280;9663;48.996;8.334;2022-09-09T16:11:51;99915.22;;;26.67
19061;BMP280;9663;48.996;8.334;2022-09-09T16:14:18;99914.03;;;26.26
19061;BMP280;9663;48.996;8.334;2022-09-09T16:16:44;99913.22;;;25.90
19061;BMP280;9663;48.996;8.334;2022-09-09T16:19:12;99908.69;;;25.57
19061;BMP280;9663;48.996;8.334;2022-09-09T16:21:49;99916.78;;;25.29
19061;BMP280;9663;48.996;8.334;2022-09-09T16:24:18;99926.94;;;25.07
19061;BMP280;9663;48.996;8.334;2022-09-09T16:26:52;99932.81;;;24.85
19061;BMP280;9663;48.996;8.334;2022-09-09T16:29:21;99943.56;;;24.66
19061;BMP280;9663;48.996;8.334;2022-09-09T16:31:49;99941.56;;;24.45
19061;BMP280;9663;48.996;8.334;2022-09-09T16:34:17;99939.50;;;24.24
19061;BMP280;9663;48.996;8.334;2022-09-09T16:36:44;99948.44;;;24.06
19061;BMP280;9663;48.996;8.334;2022-09-09T16:39:22;99946.63;;;23.94
19061;BMP280;9663;48.996;8.334;2022-09-09T16:41:49;99941.94;;;23.87
19061;BMP280;9663;48.996;8.334;2022-09-09T16:44:17;99935.34;;;23.81
19061;BMP280;9663;48.996;8.334;2022-09-09T16:46:46;99938.03;;;23.80
19061;BMP280;9663;48.996;8.334;2022-09-09T16:49:15;99936.50;;;23.77
19061;BMP280;9663;48.996;8.334;2022-09-09T16:51:47;99946.66;;;23.80
19061;BMP280;9663;48.996;8.334;2022-09-09T16:54:15;99941.41;;;23.82